Colorado Springs, CO (80924)

12:06 AM MST on December 22, 2014 (GMT -0700)
Charleston Place, Briargate, CO | Change Station
CLOSE
Current Station
Personal Weather Station
Location: Colorado Springs, CO
Elevation: 6870 ft
Nearby Weather Stations

Elev 6870 ft 38.95 °N, 104.76 °W | Updated 2 seconds ago

Ice Pellets
Ice Pellets
31.6 °F
Feels Like 32 °F
N
2.3
Wind Variable Wind from SSW
Gusts 2.3 mph

Today
High -- | Low -- °F
--% Chance of Precip.
Yesterday
High -- | Low -- °F
Precip. -- in
7:14 AM 4:40 PM
New Moon, 0% visible
Pressure 29.70 in
Visibility 8.0 miles
Clouds Few 200 ft
Mostly Cloudy 700 ft
Mostly Cloudy 1900 ft
Mostly Cloudy 3200 ft
Windchill 32 °F
Dew Point 27 °F
Humidity 82%
Rainfall 0.00 in
Snow Depth Not available.
UV 0 out of 12
Pollen .10 out of 12
Air Quality Not available.
Flu Activity Not available.
SPECI KAFF 220703Z AUTO 35014G21KT 8SM -SN FEW002 BKN007 BKN019 BKN032 00/00 A2970 RMK AO2 BKN007 V OVC

More Conditions Fewer Conditions

Pressure 29.70 in
Visibility 8.0 miles
Clouds Few 200 ft
Mostly Cloudy 700 ft
Mostly Cloudy 1900 ft
Mostly Cloudy 3200 ft
Windchill 32 °F
Dew Point 27 °F
Humidity 82%
Rainfall 0.00 in
Snow Depth Not available.
UV 0 out of 12
Pollen .10 out of 12
Air Quality Not available.
Flu Activity Not available.
SPECI KAFF 220703Z AUTO 35014G21KT 8SM -SN FEW002 BKN007 BKN019 BKN032 00/00 A2970 RMK AO2 BKN007 V OVC

More Conditions Fewer Conditions

10-Day Weather Forecast

Almanac

Astronomy

Dec. 22, 2014 Rise Set
Actual Time
Civil Twilight
Nautical Twilight
Astronomical Twilight
Moon
Length of Visible Light
Length of Day
Tomorrow will be .
, % of the Moon is Illuminated

Today's Extremes

State Highs State Lows

Community

WunderPhotos

Upload Photos

1,779,560 photos uploaded!

WunderBlogs® & News

Nearby

Air Quality

  Air Quality AQ Index Pollutant
Not available.

Snow Depth

Station Depth Elevation

Earthquake Activity

City Distance Mag. Time & Date
Minimum magnitude displayed is 2.5.

Coastal Water Temperatures

Place Temperature

Nearby Weather Stations